createdAt,value
2024-04-14T00:00:50.546Z,12.80
2024-04-14T00:03:20.228Z,12.70
2024-04-14T00:05:47.316Z,12.70
2024-04-14T00:08:14.276Z,12.70
2024-04-14T00:10:41.412Z,12.70
2024-04-14T00:13:08.378Z,12.60
2024-04-14T00:15:35.737Z,12.60
2024-04-14T00:18:59.164Z,12.60
2024-04-14T00:21:26.674Z,12.60
2024-04-14T00:23:53.630Z,12.60
2024-04-14T00:26:20.601Z,12.50
2024-04-14T00:28:47.584Z,12.50
2024-04-14T00:31:14.523Z,12.50
2024-04-14T00:33:41.484Z,12.50
2024-04-14T00:36:09.997Z,12.50
2024-04-14T00:38:37.092Z,12.50
2024-04-14T00:41:04.491Z,12.40
2024-04-14T00:43:31.648Z,12.40
2024-04-14T00:45:58.696Z,12.40
2024-04-14T00:48:25.874Z,12.40
2024-04-14T00:50:52.896Z,12.40
2024-04-14T00:53:20.373Z,12.30
2024-04-14T00:55:50.511Z,12.30
2024-04-14T00:58:17.857Z,12.30
2024-04-14T01:00:48.044Z,12.20
2024-04-14T01:03:15.297Z,12.20
2024-04-14T01:05:42.325Z,12.20
2024-04-14T01:08:09.541Z,12.20
2024-04-14T01:10:36.811Z,12.20
2024-04-14T01:13:04.412Z,12.10
2024-04-14T01:15:32.585Z,12.10
2024-04-14T01:17:59.684Z,12.20
2024-04-14T01:20:28.425Z,12.10
2024-04-14T01:22:55.505Z,12.20
2024-04-14T01:25:23.606Z,12.10
2024-04-14T01:27:50.670Z,12.10
2024-04-14T01:30:17.781Z,12.10
2024-04-14T01:32:44.786Z,12.10
2024-04-14T01:35:11.764Z,12.10
2024-04-14T01:37:38.670Z,12.00
2024-04-14T01:40:06.902Z,12.00
2024-04-14T01:42:34.560Z,12.00
2024-04-14T01:45:04.620Z,11.90
2024-04-14T01:47:31.632Z,11.90
2024-04-14T01:49:58.812Z,11.90
2024-04-14T01:52:26.002Z,11.90
2024-04-14T01:54:53.017Z,11.80
2024-04-14T01:57:20.202Z,11.90
2024-04-14T01:59:47.371Z,11.90
2024-04-14T02:02:14.349Z,11.80
2024-04-14T02:04:41.633Z,11.80
2024-04-14T02:07:08.745Z,11.80
2024-04-14T02:09:35.729Z,11.80
2024-04-14T02:12:03.099Z,11.70
2024-04-14T02:14:30.008Z,11.80
2024-04-14T02:16:57.128Z,11.70
2024-04-14T02:19:24.262Z,11.70
2024-04-14T02:21:51.311Z,11.70
2024-04-14T02:24:18.291Z,11.70
2024-04-14T02:26:45.661Z,11.70
2024-04-14T02:29:12.853Z,11.60
2024-04-14T02:31:39.967Z,11.60
2024-04-14T02:34:07.235Z,11.50
2024-04-14T02:36:34.276Z,11.60
2024-04-14T02:39:03.029Z,11.60
2024-04-14T02:41:29.981Z,11.60
2024-04-14T02:43:57.041Z,11.50
2024-04-14T02:46:24.095Z,11.50
2024-04-14T02:48:51.479Z,11.50
2024-04-14T02:51:18.705Z,11.50
2024-04-14T02:53:45.628Z,11.50
2024-04-14T02:56:12.505Z,11.50
2024-04-14T02:58:39.559Z,11.40
2024-04-14T03:01:06.763Z,11.50
2024-04-14T03:03:33.813Z,11.40
2024-04-14T03:06:04.904Z,11.40
2024-04-14T03:08:32.390Z,11.40
2024-04-14T03:10:59.725Z,11.30
2024-04-14T03:13:26.943Z,11.30
2024-04-14T03:15:54.396Z,11.30
2024-04-14T03:18:21.622Z,11.30
2024-04-14T03:20:58.670Z,11.30
2024-04-14T03:23:26.200Z,11.20
2024-04-14T03:25:53.674Z,11.20
2024-04-14T03:28:22.915Z,11.20
2024-04-14T03:30:49.936Z,11.20
2024-04-14T03:33:17.009Z,11.20
2024-04-14T03:35:43.957Z,11.20
2024-04-14T03:38:10.934Z,11.10
2024-04-14T03:40:37.834Z,11.10
2024-04-14T03:43:05.244Z,11.10
2024-04-14T03:45:34.073Z,11.10
2024-04-14T03:48:01.242Z,11.10
2024-04-14T03:50:28.342Z,11.10
2024-04-14T03:52:55.229Z,11.00
2024-04-14T03:55:22.237Z,11.00
2024-04-14T03:57:49.275Z,11.00
2024-04-14T04:00:16.450Z,11.00
2024-04-14T04:02:43.509Z,11.00
2024-04-14T04:05:10.590Z,11.00
2024-04-14T04:07:37.477Z,10.90
2024-04-14T04:10:04.969Z,10.90
2024-04-14T04:12:32.049Z,10.90
2024-04-14T04:14:59.185Z,10.90
2024-04-14T04:17:26.152Z,10.90
2024-04-14T04:19:53.378Z,10.90
2024-04-14T04:22:20.307Z,10.90
2024-04-14T04:24:47.286Z,10.90
2024-04-14T04:27:14.259Z,10.80
2024-04-14T04:29:41.236Z,10.80
2024-04-14T04:32:08.093Z,10.80
2024-04-14T04:34:35.058Z,10.80
2024-04-14T04:37:02.207Z,10.80
2024-04-14T04:39:29.369Z,10.80
2024-04-14T04:41:56.329Z,10.80
2024-04-14T04:44:23.275Z,10.80
2024-04-14T04:46:50.174Z,10.80
2024-04-14T04:49:17.092Z,10.80
2024-04-14T04:51:44.271Z,10.80
2024-04-14T04:54:11.195Z,10.70
2024-04-14T04:56:38.072Z,10.70
2024-04-14T04:59:04.981Z,10.70
2024-04-14T05:01:32.011Z,10.70
2024-04-14T05:03:59.053Z,10.70
2024-04-14T05:06:26.166Z,10.70
2024-04-14T05:08:53.187Z,10.70
2024-04-14T05:11:20.208Z,10.70
2024-04-14T05:13:49.759Z,10.60
2024-04-14T05:16:16.846Z,10.60
2024-04-14T05:18:43.942Z,10.70
2024-04-14T05:21:11.395Z,10.60
2024-04-14T05:23:38.425Z,10.60
2024-04-14T05:26:05.633Z,10.60
2024-04-14T05:28:32.575Z,10.60
2024-04-14T05:30:59.563Z,10.60
2024-04-14T05:33:26.583Z,10.60
2024-04-14T05:35:57.304Z,10.60
2024-04-14T05:38:24.386Z,10.60
2024-04-14T05:40:51.565Z,10.60
2024-04-14T05:43:18.560Z,10.70
2024-04-14T05:45:45.954Z,10.60
2024-04-14T05:48:13.870Z,10.60
2024-04-14T05:50:41.132Z,10.60
2024-04-14T05:53:08.326Z,10.70
2024-04-14T05:55:35.286Z,10.70
2024-04-14T05:58:02.333Z,10.70
2024-04-14T06:00:29.537Z,10.70
2024-04-14T06:02:56.864Z,10.70
2024-04-14T06:05:23.803Z,10.70
2024-04-14T06:07:50.944Z,10.70
2024-04-14T06:10:18.046Z,10.80
2024-04-14T06:12:44.979Z,10.80
2024-04-14T06:15:11.925Z,10.80
2024-04-14T06:17:39.324Z,10.80
2024-04-14T06:20:07.859Z,10.80
2024-04-14T06:22:34.892Z,10.80
2024-04-14T06:25:02.056Z,10.80
2024-04-14T06:27:32.390Z,10.90
2024-04-14T06:30:02.306Z,10.90
2024-04-14T06:32:29.396Z,10.90
2024-04-14T06:34:59.417Z,10.90
2024-04-14T06:37:26.408Z,10.90
2024-04-14T06:39:53.916Z,10.90
2024-04-14T06:42:20.875Z,11.00
2024-04-14T06:44:47.730Z,11.00
2024-04-14T06:47:14.697Z,11.00
2024-04-14T06:49:41.617Z,11.00
2024-04-14T06:52:08.712Z,11.00
2024-04-14T06:54:35.758Z,11.00
2024-04-14T06:57:06.260Z,11.10
2024-04-14T06:59:33.317Z,11.10
2024-04-14T07:02:01.601Z,11.10
2024-04-14T07:04:31.375Z,11.10
2024-04-14T07:06:58.603Z,10.90
2024-04-14T07:09:28.463Z,11.10
2024-04-14T07:12:11.182Z,11.10
2024-04-14T07:14:39.490Z,11.10
2024-04-14T07:17:06.517Z,11.20
2024-04-14T07:19:47.780Z,11.20
2024-04-14T07:22:18.197Z,11.10
2024-04-14T07:25:03.742Z,11.30
2024-04-14T07:27:37.171Z,11.30
2024-04-14T07:30:05.887Z,11.30
2024-04-14T07:32:35.783Z,11.40
2024-04-14T07:35:10.280Z,11.40
2024-04-14T07:37:38.679Z,11.40
2024-04-14T07:40:06.205Z,11.40
2024-04-14T07:42:33.295Z,11.50
2024-04-14T07:45:05.892Z,11.50
2024-04-14T07:47:32.857Z,11.60
2024-04-14T07:49:59.778Z,11.60
2024-04-14T07:52:29.547Z,11.70
2024-04-14T07:54:58.799Z,11.70
2024-04-14T07:57:25.824Z,11.70
2024-04-14T07:59:52.798Z,11.70
2024-04-14T08:02:19.687Z,11.80
2024-04-14T08:04:46.821Z,11.80
2024-04-14T08:07:21.387Z,11.80
2024-04-14T08:09:51.129Z,11.90
2024-04-14T08:12:18.076Z,11.90
2024-04-14T08:14:44.962Z,12.00
2024-04-14T08:17:56.594Z,12.00
2024-04-14T08:20:24.042Z,12.10
2024-04-14T08:22:50.969Z,12.10
2024-04-14T08:25:18.017Z,12.20
2024-04-14T08:27:45.017Z,12.30
2024-04-14T08:30:12.135Z,12.40
2024-04-14T08:32:39.134Z,12.40
2024-04-14T08:35:06.920Z,12.50
2024-04-14T08:37:33.883Z,12.50
2024-04-14T08:40:01.169Z,12.50
2024-04-14T08:42:29.167Z,12.60
2024-04-14T08:44:56.238Z,12.60
2024-04-14T08:47:23.227Z,12.60
2024-04-14T08:49:50.272Z,12.60
2024-04-14T08:52:17.291Z,12.60
2024-04-14T08:54:44.460Z,12.60
2024-04-14T08:57:12.312Z,12.60
2024-04-14T08:59:42.021Z,12.80
2024-04-14T09:02:10.225Z,12.80
2024-04-14T09:04:37.162Z,12.90
2024-04-14T09:07:04.325Z,12.90
2024-04-14T09:09:31.263Z,13.00
2024-04-14T09:11:59.915Z,13.10
2024-04-14T09:14:26.856Z,13.10
2024-04-14T09:16:53.963Z,13.10
2024-04-14T09:19:21.250Z,13.20
2024-04-14T09:21:48.426Z,13.20
2024-04-14T09:24:15.663Z,13.30
2024-04-14T09:26:44.466Z,13.30
2024-04-14T09:29:11.714Z,13.40
2024-04-14T09:31:38.947Z,13.40
2024-04-14T09:34:06.283Z,13.50
2024-04-14T09:36:33.568Z,13.70
2024-04-14T09:39:00.722Z,13.80
2024-04-14T09:41:27.663Z,13.90
2024-04-14T09:43:55.813Z,14.00
2024-04-14T09:46:22.788Z,14.00
2024-04-14T09:48:49.796Z,14.20
2024-04-14T09:51:16.779Z,14.20
2024-04-14T09:53:43.824Z,14.30
2024-04-14T09:56:10.944Z,14.40
2024-04-14T09:58:37.912Z,14.50
2024-04-14T10:01:09.916Z,14.60
2024-04-14T10:03:37.115Z,14.70
2024-04-14T10:06:04.595Z,14.70
2024-04-14T10:08:34.915Z,14.70
2024-04-14T10:11:08.033Z,14.80
2024-04-14T10:13:50.289Z,14.90
2024-04-14T10:16:23.949Z,15.00
2024-04-14T10:18:53.682Z,15.10
2024-04-14T10:21:23.369Z,15.20
2024-04-14T10:23:51.465Z,15.30
2024-04-14T10:26:18.888Z,15.30
2024-04-14T10:28:56.022Z,15.30
2024-04-14T10:31:32.522Z,15.20
2024-04-14T10:34:06.876Z,15.30
2024-04-14T10:36:36.028Z,15.30
2024-04-14T10:39:03.686Z,15.40
2024-04-14T10:41:30.778Z,15.60
2024-04-14T10:43:57.751Z,15.60
2024-04-14T10:46:24.791Z,15.70
2024-04-14T10:48:51.729Z,15.60
2024-04-14T10:51:21.956Z,15.60
2024-04-14T10:53:49.793Z,15.60
2024-04-14T10:56:16.729Z,15.60
2024-04-14T10:58:44.276Z,15.70
2024-04-14T11:01:11.313Z,15.60
2024-04-14T11:03:38.701Z,15.70
2024-04-14T11:06:05.863Z,15.80
2024-04-14T11:08:35.705Z,15.90
2024-04-14T11:11:02.801Z,16.00
2024-04-14T11:13:30.909Z,16.10
2024-04-14T11:16:01.661Z,16.10
2024-04-14T11:18:32.351Z,16.10
2024-04-14T11:21:05.755Z,16.20
2024-04-14T11:23:32.702Z,16.30
2024-04-14T11:25:59.768Z,16.40
2024-04-14T11:28:26.756Z,16.50
2024-04-14T11:30:57.496Z,16.60
2024-04-14T11:33:24.705Z,16.70
2024-04-14T11:36:01.338Z,16.80
2024-04-14T11:38:30.746Z,16.90
2024-04-14T11:40:57.944Z,16.90
2024-04-14T11:43:27.507Z,17.10
2024-04-14T11:45:54.467Z,17.20
2024-04-14T11:48:25.517Z,17.20
2024-04-14T11:50:53.476Z,17.30
2024-04-14T11:53:23.138Z,17.30
2024-04-14T11:55:50.123Z,17.30
2024-04-14T11:58:21.081Z,17.40
2024-04-14T12:00:49.905Z,17.40
2024-04-14T12:03:22.312Z,17.40
2024-04-14T12:05:49.664Z,17.40
2024-04-14T12:08:16.822Z,17.50
2024-04-14T12:10:44.648Z,17.60
2024-04-14T12:13:11.868Z,17.80
2024-04-14T12:15:41.836Z,18.00
2024-04-14T12:18:11.232Z,18.00
2024-04-14T12:20:38.821Z,18.10
2024-04-14T12:23:05.901Z,18.20
2024-04-14T12:25:36.225Z,18.20
2024-04-14T12:28:03.308Z,18.20
2024-04-14T12:30:36.233Z,18.20
2024-04-14T12:33:10.313Z,18.20
2024-04-14T12:35:37.251Z,18.20
2024-04-14T12:38:09.863Z,18.20
2024-04-14T12:40:38.599Z,18.20
2024-04-14T12:43:05.885Z,18.20
2024-04-14T12:45:37.778Z,18.10
2024-04-14T12:48:06.337Z,18.10
2024-04-14T12:50:40.502Z,18.00
2024-04-14T12:53:11.858Z,18.00
2024-04-14T12:55:38.890Z,18.00
2024-04-14T12:58:06.050Z,18.00
2024-04-14T13:00:32.988Z,18.00
2024-04-14T13:03:00.028Z,18.00
2024-04-14T13:05:27.143Z,17.80
2024-04-14T13:07:54.100Z,17.80
2024-04-14T13:10:21.111Z,17.70
2024-04-14T13:12:48.625Z,17.70
2024-04-14T13:15:15.837Z,17.70
2024-04-14T13:18:49.912Z,17.60
2024-04-14T13:21:21.336Z,17.60
2024-04-14T13:23:49.688Z,17.60
2024-04-14T13:26:16.829Z,17.60
2024-04-14T13:28:43.887Z,17.60
2024-04-14T13:31:11.249Z,17.70
2024-04-14T13:33:41.221Z,17.80
2024-04-14T13:36:08.494Z,17.80
2024-04-14T13:38:35.580Z,17.70
2024-04-14T13:41:03.479Z,17.80
2024-04-14T13:43:30.570Z,17.80
2024-04-14T13:46:00.236Z,17.90
2024-04-14T13:48:27.453Z,18.00
2024-04-14T13:50:54.532Z,18.10
2024-04-14T13:53:21.667Z,18.00
2024-04-14T13:55:48.777Z,17.80
2024-04-14T13:58:21.428Z,17.70
2024-04-14T14:00:49.319Z,17.70
2024-04-14T14:03:16.565Z,17.70
2024-04-14T14:05:43.739Z,17.70
2024-04-14T14:08:11.189Z,17.70
2024-04-14T14:10:38.078Z,17.80
2024-04-14T14:13:06.172Z,17.90
2024-04-14T14:15:33.342Z,18.00
2024-04-14T14:18:00.288Z,18.10
2024-04-14T14:20:27.191Z,18.10
2024-04-14T14:22:54.115Z,18.10
2024-04-14T14:25:21.147Z,18.10
2024-04-14T14:27:48.252Z,18.00
2024-04-14T14:30:15.936Z,18.00
2024-04-14T14:32:42.944Z,17.90
2024-04-14T14:35:28.355Z,17.80
2024-04-14T14:37:55.289Z,17.70
2024-04-14T14:40:22.276Z,17.60
2024-04-14T14:42:49.423Z,17.50
2024-04-14T14:45:16.458Z,17.40
2024-04-14T14:47:45.123Z,17.30
2024-04-14T14:50:12.122Z,17.30
2024-04-14T14:52:39.211Z,17.20
2024-04-14T14:55:07.152Z,17.10
2024-04-14T14:57:34.310Z,17.10
2024-04-14T15:00:01.399Z,17.10
2024-04-14T15:02:28.368Z,17.10
2024-04-14T15:04:55.443Z,17.00
2024-04-14T15:07:22.918Z,16.90
2024-04-14T15:09:56.261Z,16.90
2024-04-14T15:12:23.551Z,16.80
2024-04-14T15:14:50.480Z,16.80
2024-04-14T15:17:17.502Z,16.90
2024-04-14T15:19:45.615Z,16.70
2024-04-14T15:22:18.065Z,16.60
2024-04-14T15:24:46.155Z,16.60
2024-04-14T15:27:15.585Z,16.50
2024-04-14T15:29:42.768Z,16.50
2024-04-14T15:32:12.373Z,16.40
2024-04-14T15:34:39.260Z,16.40
2024-04-14T15:37:06.363Z,16.20
2024-04-14T15:39:33.360Z,16.10
2024-04-14T15:42:00.294Z,16.10
2024-04-14T15:44:27.846Z,16.00
2024-04-14T15:46:55.118Z,15.90
2024-04-14T15:52:02.785Z,15.80
2024-04-14T15:54:29.658Z,15.60
2024-04-14T15:56:56.653Z,15.70
2024-04-14T15:59:23.545Z,15.70
2024-04-14T16:01:50.462Z,15.60
2024-04-14T16:04:17.476Z,15.60
2024-04-14T16:06:44.543Z,15.50
2024-04-14T16:09:11.533Z,15.50
2024-04-14T16:11:38.499Z,15.40
2024-04-14T16:14:05.662Z,15.40
2024-04-14T16:16:32.865Z,15.40
2024-04-14T16:18:59.859Z,15.30
2024-04-14T16:21:27.171Z,15.30
2024-04-14T16:23:54.130Z,15.20
2024-04-14T16:26:21.111Z,15.20
2024-04-14T16:28:48.031Z,15.20
2024-04-14T16:31:15.464Z,15.10
2024-04-14T16:33:43.297Z,15.10
2024-04-14T16:36:12.128Z,15.00
2024-04-14T16:38:39.312Z,15.00
2024-04-14T16:41:07.416Z,15.00
2024-04-14T16:43:34.384Z,15.00
2024-04-14T16:46:01.450Z,15.00
2024-04-14T16:48:29.068Z,14.90
2024-04-14T16:50:56.353Z,15.00
2024-04-14T16:53:23.356Z,15.00
2024-04-14T16:55:50.569Z,14.90
2024-04-14T16:58:17.889Z,14.90
2024-04-14T17:00:45.461Z,14.90
2024-04-14T17:03:12.519Z,14.90
2024-04-14T17:05:40.031Z,14.80
2024-04-14T17:08:07.479Z,14.80
2024-04-14T17:10:34.379Z,14.80
2024-04-14T17:13:01.460Z,14.80
2024-04-14T17:15:28.594Z,14.70
2024-04-14T17:18:09.087Z,14.70
2024-04-14T17:20:40.695Z,14.60
2024-04-14T17:23:10.581Z,14.60
2024-04-14T17:25:37.862Z,14.50
2024-04-14T17:28:05.025Z,14.50
2024-04-14T17:30:32.133Z,14.50
2024-04-14T17:32:59.122Z,14.50
2024-04-14T17:35:26.086Z,14.40
2024-04-14T17:37:53.189Z,14.40
2024-04-14T17:40:20.872Z,14.40
2024-04-14T17:42:48.387Z,14.40
2024-04-14T17:45:21.003Z,14.30
2024-04-14T17:47:48.815Z,14.30
2024-04-14T17:50:19.849Z,14.30
2024-04-14T17:52:47.028Z,14.30
2024-04-14T17:55:14.118Z,14.30
2024-04-14T17:57:41.154Z,14.20
2024-04-14T18:00:08.715Z,14.20
2024-04-14T18:02:35.711Z,14.20
2024-04-14T18:05:02.683Z,14.20
2024-04-14T18:07:29.680Z,14.10
2024-04-14T18:09:56.646Z,14.10
2024-04-14T18:12:24.900Z,14.10
2024-04-14T18:14:55.212Z,14.10
2024-04-14T18:17:22.268Z,14.00
2024-04-14T18:19:49.384Z,14.00
2024-04-14T18:22:16.370Z,13.80
2024-04-14T18:24:43.944Z,14.00
2024-04-14T18:27:11.755Z,13.90
2024-04-14T18:29:39.554Z,13.90
2024-04-14T18:32:06.804Z,13.90
2024-04-14T18:34:33.774Z,13.80
2024-04-14T18:37:00.944Z,13.80
2024-04-14T18:39:28.437Z,13.80
2024-04-14T18:41:55.285Z,13.80
2024-04-14T18:44:22.316Z,13.70
2024-04-14T18:46:49.346Z,13.70
2024-04-14T18:49:16.323Z,13.70
2024-04-14T18:51:43.388Z,13.70
2024-04-14T18:54:10.294Z,13.70
2024-04-14T18:56:37.261Z,13.70
2024-04-14T18:59:04.298Z,13.70
2024-04-14T19:01:31.315Z,13.70
2024-04-14T19:04:01.552Z,13.60
2024-04-14T19:06:28.524Z,13.60
2024-04-14T19:08:55.522Z,13.60
2024-04-14T19:11:22.498Z,13.60
2024-04-14T19:13:49.629Z,13.50
2024-04-14T19:16:17.578Z,13.50
2024-04-14T19:18:44.677Z,13.50
2024-04-14T19:21:11.641Z,13.50
2024-04-14T19:23:38.757Z,13.50
2024-04-14T19:26:10.231Z,13.50
2024-04-14T19:28:37.403Z,13.40
2024-04-14T19:31:04.530Z,13.40
2024-04-14T19:33:31.893Z,13.40
2024-04-14T19:35:59.047Z,13.30
2024-04-14T19:38:27.820Z,13.30
2024-04-14T19:40:55.544Z,13.30
2024-04-14T19:43:22.898Z,13.30
2024-04-14T19:45:49.985Z,13.20
2024-04-14T19:48:16.995Z,13.10
2024-04-14T19:50:44.169Z,13.10
2024-04-14T19:53:11.251Z,13.10
2024-04-14T19:55:38.672Z,13.00
2024-04-14T19:58:05.688Z,13.00
2024-04-14T20:00:33.068Z,12.90
2024-04-14T20:03:00.203Z,13.00
2024-04-14T20:05:27.276Z,12.80
2024-04-14T20:07:57.074Z,12.80
2024-04-14T20:10:24.368Z,12.70
2024-04-14T20:12:51.520Z,12.70
2024-04-14T20:15:21.199Z,12.70
2024-04-14T20:17:48.272Z,12.60
2024-04-14T20:20:15.420Z,12.50
2024-04-14T20:22:42.896Z,12.50
2024-04-14T20:25:10.049Z,12.40
2024-04-14T20:27:37.321Z,12.40
2024-04-14T20:30:05.013Z,12.30
2024-04-14T20:32:32.021Z,12.30
2024-04-14T20:34:58.974Z,12.20
2024-04-14T20:37:25.866Z,12.20
2024-04-14T20:39:53.824Z,12.10
2024-04-14T20:42:23.479Z,12.10
2024-04-14T20:44:50.555Z,12.00
2024-04-14T20:47:21.506Z,11.90
2024-04-14T20:49:50.645Z,11.80
2024-04-14T20:52:19.245Z,11.80
2024-04-14T20:54:47.705Z,11.70
2024-04-14T20:57:17.610Z,11.70
2024-04-14T20:59:45.087Z,11.60
2024-04-14T21:02:12.006Z,11.60
2024-04-14T21:04:45.816Z,11.50
2024-04-14T21:07:16.967Z,11.50
2024-04-14T21:09:44.081Z,11.50
2024-04-14T21:12:11.258Z,11.40
2024-04-14T21:14:38.559Z,11.40
2024-04-14T21:17:05.581Z,11.40
2024-04-14T21:19:35.688Z,11.30
2024-04-14T21:22:02.914Z,11.30
2024-04-14T21:24:30.143Z,11.20
2024-04-14T21:26:57.150Z,11.20
2024-04-14T21:29:24.080Z,11.20
2024-04-14T21:31:52.250Z,11.20
2024-04-14T21:34:19.313Z,11.20
2024-04-14T21:36:48.348Z,11.10
2024-04-14T21:39:15.346Z,11.00
2024-04-14T21:41:42.299Z,11.00
2024-04-14T21:44:09.257Z,11.00
2024-04-14T21:46:36.310Z,10.90
2024-04-14T21:49:04.717Z,10.90
2024-04-14T21:51:31.735Z,10.90
2024-04-14T21:53:58.682Z,10.80
2024-04-14T21:56:25.728Z,10.80
2024-04-14T21:58:52.711Z,10.80
2024-04-14T22:01:19.818Z,10.70
2024-04-14T22:03:47.130Z,10.70
2024-04-14T22:06:14.450Z,10.60
2024-04-14T22:08:41.837Z,10.60
2024-04-14T22:11:09.620Z,10.60
2024-04-14T22:13:37.189Z,10.60
2024-04-14T22:16:04.652Z,10.50
2024-04-14T22:18:31.901Z,10.50
2024-04-14T22:20:59.249Z,10.40
2024-04-14T22:23:26.396Z,10.40
2024-04-14T22:25:53.580Z,10.40
2024-04-14T22:28:20.528Z,10.40
2024-04-14T22:30:47.711Z,10.40
2024-04-14T22:33:14.700Z,10.30
2024-04-14T22:35:42.448Z,10.30
2024-04-14T22:38:09.613Z,10.30
2024-04-14T22:40:36.768Z,10.30
2024-04-14T22:43:03.940Z,10.30
2024-04-14T22:45:31.037Z,10.20
2024-04-14T22:47:58.122Z,10.20
2024-04-14T22:50:25.097Z,10.10
2024-04-14T22:52:52.012Z,10.10
2024-04-14T22:55:19.384Z,10.10
2024-04-14T22:57:46.332Z,10.10
2024-04-14T23:00:13.481Z,10.00
2024-04-14T23:02:40.438Z,10.00
2024-04-14T23:05:07.643Z,10.00
2024-04-14T23:07:34.613Z,10.00
2024-04-14T23:10:01.809Z,9.90
2024-04-14T23:12:28.905Z,9.90
2024-04-14T23:14:55.807Z,9.90
2024-04-14T23:17:23.102Z,9.90
2024-04-14T23:19:50.182Z,9.80
2024-04-14T23:22:17.476Z,9.70
2024-04-14T23:24:44.749Z,9.70
2024-04-14T23:27:11.905Z,9.70
2024-04-14T23:29:38.835Z,9.70
2024-04-14T23:32:06.407Z,9.70
2024-04-14T23:34:33.502Z,9.70
2024-04-14T23:37:01.639Z,9.60
2024-04-14T23:39:28.805Z,9.60
2024-04-14T23:41:57.720Z,9.60
2024-04-14T23:44:24.640Z,9.50
2024-04-14T23:46:51.573Z,9.60
2024-04-14T23:49:25.887Z,9.60
2024-04-14T23:51:52.932Z,9.50
2024-04-14T23:54:19.924Z,9.50
2024-04-14T23:56:46.812Z,9.50
2024-04-14T23:59:13.778Z,9.50
